Time;durP1;ratioP1;P1;durP2;ratioP2;P2;SDS_P1;SDS_P2;PMS_P1;PMS_P2;Temp;Humidity;BMP_temperature;BMP_pressure;BME280_temperature;BME280_humidity;BME280_pressure;Samples;Min_cycle;Max_cycle;Signal;HPM_P1;HPM_P2
2022/08/27 00:00:47;;;;;;;20.13;8.27;;;;;;;24.21;33.81;99994.31;5074516;28;20058;-68
2022/08/27 00:03:14;;;;;;;15.77;8.38;;;;;;;24.15;33.61;99984.59;5074195;28;20083;-68
2022/08/27 00:05:44;;;;;;;13.52;7.80;;;;;;;24.15;33.73;99987.44;5074417;28;20052;-68
2022/08/27 00:08:12;;;;;;;21.55;8.07;;;;;;;24.12;34.03;99993.94;5054418;28;20057;-69
2022/08/27 00:10:40;;;;;;;16.35;7.57;;;;;;;24.10;34.29;99990.72;5064166;28;20048;-68
2022/08/27 00:13:08;;;;;;;15.52;7.80;;;;;;;24.04;34.30;99996.00;5074087;28;20407;-68
2022/08/27 00:15:35;;;;;;;15.07;7.72;;;;;;;24.01;34.46;99994.00;5074249;28;20048;-69
2022/08/27 00:18:03;;;;;;;11.57;7.28;;;;;;;23.94;34.53;99988.31;5074446;28;20044;-68
2022/08/27 00:20:30;;;;;;;20.52;8.38;;;;;;;23.89;34.37;99985.88;5074351;28;20052;-68
2022/08/27 00:22:57;;;;;;;16.80;7.57;;;;;;;23.82;34.58;99993.63;5074108;28;20139;-68
2022/08/27 00:25:24;;;;;;;13.32;8.60;;;;;;;23.79;34.91;99994.44;5074456;28;20053;-68
2022/08/27 00:27:51;;;;;;;16.33;8.18;;;;;;;23.73;35.12;99993.25;5074260;28;20440;-68
2022/08/27 00:30:22;;;;;;;15.23;8.77;;;;;;;23.75;35.12;99990.81;5073548;28;20071;-68
2022/08/27 00:32:49;;;;;;;18.05;8.00;;;;;;;23.74;35.25;99990.00;5074053;28;20062;-68
2022/08/27 00:35:17;;;;;;;16.73;7.90;;;;;;;23.69;35.42;99989.59;5074161;28;20056;-68
2022/08/27 00:37:44;;;;;;;14.45;7.95;;;;;;;23.66;35.29;99987.59;5073797;28;20526;-69
2022/08/27 00:40:16;;;;;;;10.98;7.15;;;;;;;23.57;35.12;99996.53;5073498;28;20135;-68
2022/08/27 00:42:44;;;;;;;14.88;8.23;;;;;;;23.48;35.44;99990.47;5073275;28;20048;-69
2022/08/27 00:45:14;;;;;;;14.40;9.23;;;;;;;23.49;35.23;99994.94;5073251;28;20047;-69
2022/08/27 00:47:49;;;;;;;14.68;7.80;;;;;;;23.45;35.29;99994.13;5073590;28;20048;-67
2022/08/27 00:50:35;;;;;;;17.33;7.47;;;;;;;23.44;35.38;99998.16;5073572;28;20131;-68
2022/08/27 00:53:07;;;;;;;12.27;7.35;;;;;;;23.42;35.43;100001.41;5073472;28;20148;-68
2022/08/27 00:55:44;;;;;;;12.88;7.55;;;;;;;23.43;35.40;99996.56;5073556;28;20056;-67
2022/08/27 00:58:29;;;;;;;32.78;15.00;;;;;;;23.35;35.51;99997.78;5072991;28;20316;-68
2022/08/27 01:00:58;;;;;;;17.35;8.75;;;;;;;23.28;35.58;99995.78;5055872;28;20048;-67
2022/08/27 01:03:26;;;;;;;14.63;7.85;;;;;;;23.26;35.65;99991.69;5073200;28;20431;-68
2022/08/27 01:05:55;;;;;;;19.10;8.18;;;;;;;23.24;35.56;99989.28;5073056;28;20064;-69
2022/08/27 01:08:27;;;;;;;;;;;;;;;23.12;35.56;99992.50;5073423;28;20467;-68
2022/08/27 01:10:57;;;;;;;23.42;7.28;;;;;;;23.19;35.82;99992.50;5073208;28;19924;-68
2022/08/27 01:13:28;;;;;;;17.02;8.00;;;;;;;23.21;35.72;100000.63;5073275;28;20091;-68
2022/08/27 01:16:20;;;;;;;16.33;7.72;;;;;;;23.20;35.95;99998.97;5072629;28;20053;-68
2022/08/27 01:18:49;;;;;;;15.23;8.43;;;;;;;23.16;36.08;100004.66;5070995;28;20045;-68
2022/08/27 01:21:30;;;;;;;15.30;7.95;;;;;;;23.14;36.05;99998.59;5072899;28;20072;-69
2022/08/27 01:24:21;;;;;;;12.77;8.23;;;;;;;23.11;36.13;99999.41;5072931;28;20048;-69
2022/08/27 01:26:49;;;;;;;15.77;7.32;;;;;;;23.12;36.26;100000.22;5051189;28;20427;-69
2022/08/27 01:29:16;;;;;;;16.52;7.38;;;;;;;23.10;36.38;99994.94;5072672;28;20550;-68
2022/08/27 01:31:43;;;;;;;19.63;7.93;;;;;;;23.12;36.53;100000.22;5072832;28;20050;-69
2022/08/27 01:34:13;;;;;;;14.25;7.72;;;;;;;23.11;36.41;100009.94;5072547;28;20054;-69
2022/08/27 01:36:40;;;;;;;15.05;7.20;;;;;;;23.06;36.64;100008.31;5072757;28;20051;-69
2022/08/27 01:39:07;;;;;;;14.73;8.32;;;;;;;23.01;36.61;100014.38;5072613;28;20500;-69
2022/08/27 01:41:34;;;;;;;17.38;9.07;;;;;;;22.97;36.90;100009.91;5072785;28;20056;-69
2022/08/27 01:44:03;;;;;;;15.93;8.05;;;;;;;22.87;37.02;100008.72;5052745;28;20053;-68
2022/08/27 01:46:30;;;;;;;17.30;8.15;;;;;;;22.88;37.29;100010.31;5064954;28;20102;-69
2022/08/27 01:48:57;;;;;;;16.88;7.65;;;;;;;22.88;37.22;100012.34;5072644;28;20181;-68
2022/08/27 01:51:24;;;;;;;18.05;8.70;;;;;;;22.86;37.45;100000.59;5072366;28;20056;-68
2022/08/27 01:53:51;;;;;;;15.07;8.13;;;;;;;22.83;37.42;100010.72;5072812;28;20048;-70
2022/08/27 01:56:18;;;;;;;20.83;8.18;;;;;;;22.82;37.41;100017.59;5072365;28;20063;-68
2022/08/27 01:58:46;;;;;;;17.75;8.55;;;;;;;22.78;37.60;100011.13;5071042;28;20049;-67
2022/08/27 02:01:18;;;;;;;14.45;9.32;;;;;;;22.77;37.71;100015.16;5072260;28;20056;-68
2022/08/27 02:03:47;;;;;;;19.23;8.48;;;;;;;22.74;37.98;100018.00;5072537;28;20143;-68
2022/08/27 02:06:14;;;;;;;21.25;8.98;;;;;;;22.71;38.11;100028.13;5072499;28;20048;-67
2022/08/27 02:08:41;;;;;;;16.20;7.95;;;;;;;22.67;38.25;100015.97;5072336;28;20048;-68
2022/08/27 02:11:08;;;;;;;18.42;8.68;;;;;;;22.65;38.48;100012.72;5072505;28;20411;-67
2022/08/27 02:13:36;;;;;;;17.67;8.82;;;;;;;22.65;38.48;100011.91;5072243;28;20044;-68
2022/08/27 02:16:04;;;;;;;19.80;9.48;;;;;;;22.60;38.74;100018.78;5072222;28;20094;-65
2022/08/27 02:18:31;;;;;;;20.13;8.90;;;;;;;22.58;38.82;100015.53;5072344;28;20044;-64
2022/08/27 02:20:58;;;;;;;19.27;9.43;;;;;;;22.55;38.98;100019.19;5064886;28;20131;-65
2022/08/27 02:23:25;;;;;;;21.90;9.85;;;;;;;22.53;39.12;100018.75;5055414;28;20483;-65
2022/08/27 02:25:52;;;;;;;17.83;8.68;;;;;;;22.51;39.33;100020.38;5072385;28;20062;-73
2022/08/27 02:28:19;;;;;;;23.80;10.60;;;;;;;22.51;39.34;100026.88;5072018;28;20060;-73
2022/08/27 02:30:46;;;;;;;18.55;8.75;;;;;;;22.50;39.47;100022.41;5074066;28;20510;-73
2022/08/27 02:33:13;;;;;;;21.88;8.90;;;;;;;22.50;39.62;100028.06;5076204;28;20052;-73
2022/08/27 02:35:42;;;;;;;18.02;9.88;;;;;;;22.50;39.68;100025.22;5076105;28;20066;-73
2022/08/27 02:38:12;;;;;;;19.40;9.07;;;;;;;22.48;39.73;100013.47;5076059;28;20565;-72
2022/08/27 02:40:39;;;;;;;21.73;9.63;;;;;;;22.47;39.94;100022.38;5074680;28;20051;-73
2022/08/27 02:43:06;;;;;;;21.25;9.15;;;;;;;22.47;40.17;100022.38;5068407;28;20051;-72
2022/08/27 02:45:33;;;;;;;20.77;9.68;;;;;;;22.49;40.04;100029.25;5075765;28;20082;-72
2022/08/27 02:48:01;;;;;;;16.75;9.82;;;;;;;22.49;40.08;100023.59;5075934;28;20045;-72
2022/08/27 02:50:28;;;;;;;25.35;10.40;;;;;;;22.56;40.15;100020.00;5076231;28;20079;-72
2022/08/27 02:52:56;;;;;;;20.77;9.82;;;;;;;22.58;40.25;100028.91;5075844;28;20048;-73
2022/08/27 02:55:23;;;;;;;20.90;9.77;;;;;;;22.51;40.49;100026.06;5075831;28;20056;-72
2022/08/27 02:57:50;;;;;;;22.77;9.68;;;;;;;22.41;40.80;100032.47;5075672;28;20059;-72
2022/08/27 03:00:19;;;;;;;26.30;12.02;;;;;;;22.38;41.07;100033.28;5075653;28;20135;-72
2022/08/27 03:02:47;;;;;;;26.17;10.07;;;;;;;22.39;41.31;100038.56;5075702;28;20063;-74
2022/08/27 03:05:15;;;;;;;23.73;11.50;;;;;;;22.42;41.32;100042.59;5075712;28;20044;-72
2022/08/27 03:07:42;;;;;;;19.70;10.23;;;;;;;22.42;41.44;100040.59;5075795;28;20044;-72
2022/08/27 03:10:12;;;;;;;24.55;10.30;;;;;;;22.39;41.63;100044.22;5075401;28;20128;-73
2022/08/27 03:12:40;;;;;;;20.55;10.07;;;;;;;22.38;41.74;100027.63;5075258;28;20138;-72
2022/08/27 03:15:09;;;;;;;21.80;10.60;;;;;;;22.40;41.85;100036.50;5076319;28;20139;-73
2022/08/27 03:20:23;;;;;;;24.02;9.25;;;;;;;22.25;42.11;100049.81;5075520;28;19924;-68
2022/08/27 03:22:51;;;;;;;20.90;9.73;;;;;;;22.35;42.13;100045.41;5075069;28;20048;-69
2022/08/27 03:25:18;;;;;;;21.77;9.93;;;;;;;22.37;42.26;100057.97;5075073;28;20529;-69
2022/08/27 03:27:45;;;;;;;23.73;10.02;;;;;;;22.41;42.26;100049.50;5075300;28;20052;-69
2022/08/27 03:30:16;;;;;;;18.40;9.00;;;;;;;22.46;42.22;100061.25;5074815;28;20143;-68
2022/08/27 03:32:43;;;;;;;24.35;10.63;;;;;;;22.46;42.25;100055.56;5055069;28;20460;-69
2022/08/27 03:35:11;;;;;;;23.33;10.07;;;;;;;22.53;42.40;100052.78;5053627;28;20052;-68
2022/08/27 03:37:39;;;;;;;19.85;9.85;;;;;;;22.54;42.42;100057.25;5055007;28;20085;-68
2022/08/27 03:40:08;;;;;;;25.73;9.90;;;;;;;22.60;42.56;100054.84;5053333;28;20052;-70
2022/08/27 03:42:36;;;;;;;27.50;11.88;;;;;;;22.65;42.57;100060.13;5062655;28;20044;-68
2022/08/27 03:45:07;;;;;;;18.52;9.65;;;;;;;22.67;42.44;100055.66;5074978;28;20058;-68
2022/08/27 03:47:35;;;;;;;24.27;9.98;;;;;;;22.75;42.39;100060.16;5074921;28;20046;-69
2022/08/27 03:50:03;;;;;;;20.17;9.77;;;;;;;22.77;42.59;100054.88;5074843;28;20051;-69
2022/08/27 03:52:32;;;;;;;20.48;9.88;;;;;;;22.90;42.37;100053.28;5074771;28;20052;-69
2022/08/27 03:55:00;;;;;;;18.52;10.07;;;;;;;22.89;42.55;100053.69;5075010;28;20104;-68
2022/08/27 03:57:27;;;;;;;16.50;10.20;;;;;;;22.98;42.59;100049.22;5074749;28;20135;-68
2022/08/27 03:59:57;;;;;;;31.75;11.07;;;;;;;23.06;42.55;100050.06;5074554;28;20048;-68
2022/08/27 04:02:24;;;;;;;21.45;9.60;;;;;;;23.12;42.49;100054.94;5074363;28;20052;-68
2022/08/27 04:04:52;;;;;;;23.67;9.05;;;;;;;23.20;42.30;100053.72;5074616;28;20048;-68
2022/08/27 04:07:21;;;;;;;19.42;8.95;;;;;;;23.27;42.47;100050.91;5072957;28;20052;-68
2022/08/27 04:09:48;;;;;;;25.38;9.48;;;;;;;23.36;41.92;100053.38;5074710;28;20063;-68
2022/08/27 04:12:15;;;;;;;25.45;11.40;;;;;;;23.47;41.04;100054.16;5072716;28;20048;-69
2022/08/27 04:14:41;;;;;;;29.92;11.73;;;;;;;23.63;40.35;100056.59;5073989;28;20411;-69
2022/08/27 04:17:11;;;;;;;20.35;11.35;;;;;;;23.71;39.55;100049.69;5074238;28;20048;-69
2022/08/27 04:19:38;;;;;;;18.15;9.85;;;;;;;23.77;39.72;100054.53;5075078;28;20052;-69
2022/08/27 04:22:06;;;;;;;22.02;12.00;;;;;;;23.79;39.56;100048.44;5074147;28;20377;-69
2022/08/27 04:24:35;;;;;;;24.55;12.23;;;;;;;23.89;39.28;100056.94;5074230;28;20055;-68
2022/08/27 04:27:03;;;;;;;23.33;11.60;;;;;;;24.01;39.04;100052.88;5073974;28;20059;-68
2022/08/27 04:29:31;;;;;;;31.55;13.10;;;;;;;24.09;38.65;100051.63;5073616;28;20295;-68
2022/08/27 04:31:58;;;;;;;35.35;12.45;;;;;;;24.17;38.86;100048.38;5065345;28;20037;-69
2022/08/27 04:34:25;;;;;;;32.78;14.02;;;;;;;24.26;38.64;100056.44;5054235;28;20475;-69
2022/08/27 04:36:56;;;;;;;27.95;13.43;;;;;;;24.33;38.71;100053.56;5053939;28;20048;-69
2022/08/27 04:39:25;;;;;;;34.47;13.07;;;;;;;24.37;38.70;100055.16;5053885;28;20469;-67
2022/08/27 04:41:58;;;;;;;40.88;13.05;;;;;;;24.43;38.55;100056.41;5056339;28;20472;-68
2022/08/27 04:44:31;;;;;;;35.97;12.98;;;;;;;24.50;38.21;100049.84;5073450;28;20087;-68
2022/08/27 04:47:02;;;;;;;30.25;12.75;;;;;;;24.61;38.29;100045.75;5073632;28;20044;-67
2022/08/27 04:49:30;;;;;;;26.75;14.23;;;;;;;24.69;37.85;100046.53;5072144;28;20044;-69
2022/08/27 04:51:59;;;;;;;25.10;12.50;;;;;;;24.82;37.79;100056.22;5073241;28;20140;-72
2022/08/27 04:54:26;;;;;;;24.60;11.43;;;;;;;24.89;38.24;100071.19;5072414;28;20470;-72
2022/08/27 04:57:02;;;;;;;33.30;12.75;;;;;;;24.89;38.07;100070.38;5073333;28;20058;-73
2022/08/27 04:59:31;;;;;;;27.73;12.82;;;;;;;24.93;38.28;100060.59;5073298;28;20060;-72
2022/08/27 05:01:58;;;;;;;20.35;11.68;;;;;;;25.02;37.39;100055.25;5073214;28;20044;-73
2022/08/27 05:04:29;;;;;;;21.38;11.70;;;;;;;25.14;37.26;100053.97;5072998;28;20064;-72
2022/08/27 05:06:56;;;;;;;27.60;10.88;;;;;;;25.27;37.32;100055.06;5073262;28;20475;-72
2022/08/27 05:09:23;;;;;;;24.17;11.70;;;;;;;25.38;36.74;100055.00;5073207;28;20048;-73
2022/08/27 05:11:54;;;;;;;26.45;11.07;;;;;;;25.47;36.37;100050.47;5072956;28;20044;-73
2022/08/27 05:14:24;;;;;;;27.10;10.03;;;;;;;25.55;35.82;100049.16;5073106;28;20139;-73
2022/08/27 05:16:50;;;;;;;22.20;10.32;;;;;;;25.66;35.55;100049.03;5073177;28;20130;-74
2022/08/27 05:19:17;;;;;;;20.63;11.45;;;;;;;25.75;35.44;100052.25;5073002;28;20044;-73
2022/08/27 05:21:47;;;;;;;17.23;10.63;;;;;;;25.84;35.15;100055.41;5072885;28;20044;-75
2022/08/27 05:24:16;;;;;;;30.00;10.55;;;;;;;25.90;34.57;100051.66;5072926;28;20056;-73
2022/08/27 05:26:43;;;;;;;27.65;10.30;;;;;;;26.01;33.91;100058.09;5073254;28;20152;-73
2022/08/27 05:29:11;;;;;;;21.85;10.63;;;;;;;26.12;33.74;100057.97;5072572;28;20063;-73
2022/08/27 05:31:38;;;;;;;18.83;9.75;;;;;;;26.24;33.22;100051.72;5088194;28;20060;-74
2022/08/27 05:34:06;;;;;;;21.67;9.23;;;;;;;26.40;32.95;100060.47;5072578;28;20499;-74
2022/08/27 05:36:42;;;;;;;20.88;9.05;;;;;;;26.55;32.40;100053.34;5087117;28;20499;-73
2022/08/27 05:39:15;;;;;;;16.00;9.25;;;;;;;26.80;31.79;100051.78;5072440;28;20048;-73
2022/08/27 05:41:42;;;;;;;18.27;9.63;;;;;;;27.16;31.36;100051.25;5072258;28;20147;-72
2022/08/27 05:44:09;;;;;;;24.42;8.68;;;;;;;27.50;30.57;100054.81;5072723;28;20517;-72
2022/08/27 05:46:56;;;;;;;22.15;9.23;;;;;;;27.71;29.96;100049.53;5085229;28;20052;-73
2022/08/27 05:49:23;;;;;;;19.92;9.75;;;;;;;28.38;29.21;100049.06;5072481;28;20054;-73
2022/08/27 05:51:50;;;;;;;15.73;9.25;;;;;;;29.67;27.28;100047.31;5070954;28;20040;-74
2022/08/27 05:54:18;;;;;;;24.40;9.10;;;;;;;31.48;25.14;100036.56;5072669;28;20048;-74
2022/08/27 05:56:46;;;;;;;23.80;9.05;;;;;;;33.54;22.61;100055.13;5072595;28;20109;-74
2022/08/27 06:02:01;;;;;;;17.45;8.88;;;;;;;32.92;22.91;100042.78;5072450;28;20136;-74
2022/08/27 06:04:29;;;;;;;17.63;8.90;;;;;;;32.33;23.44;100045.88;5072549;28;20499;-73
2022/08/27 06:06:56;;;;;;;25.73;8.65;;;;;;;31.85;23.43;100042.72;5072114;28;20053;-73
2022/08/27 06:09:27;;;;;;;14.57;7.97;;;;;;;31.62;23.94;100047.56;5071640;28;20040;-72
2022/08/27 06:11:57;;;;;;;16.35;8.02;;;;;;;31.69;23.26;100040.78;5071864;28;20041;-73
2022/08/27 06:14:25;;;;;;;14.95;8.40;;;;;;;32.17;22.68;100037.41;5072027;28;20094;-74
2022/08/27 06:16:52;;;;;;;26.92;8.75;;;;;;;34.13;20.33;100048.03;5071054;28;20143;-73
2022/08/27 06:19:19;;;;;;;15.40;8.50;;;;;;;35.12;19.01;100042.13;5072405;28;20058;-75
2022/08/27 06:21:46;;;;;;;15.23;8.55;;;;;;;34.32;20.17;100043.84;5072000;28;20118;-75
2022/08/27 06:24:34;;;;;;;16.20;9.25;;;;;;;33.25;21.39;100043.91;5071879;28;20508;-65
2022/08/27 06:27:02;;;;;;;16.23;9.43;;;;;;;32.54;22.04;100045.13;5072152;28;20053;-65
2022/08/27 06:29:28;;;;;;;20.23;9.38;;;;;;;32.09;22.49;100041.84;5071932;28;20067;-64
2022/08/27 06:31:55;;;;;;;16.17;9.02;;;;;;;31.67;22.94;100043.31;5071943;28;20048;-64
2022/08/27 06:34:22;;;;;;;15.55;9.43;;;;;;;31.38;23.55;100040.59;5072038;28;20051;-64
2022/08/27 06:36:49;;;;;;;24.83;9.93;;;;;;;31.56;23.66;100042.88;5072180;28;20044;-67
2022/08/27 06:39:16;;;;;;;20.17;9.82;;;;;;;32.13;22.82;100041.69;5071640;28;20057;-64
2022/08/27 06:41:44;;;;;;;21.15;10.02;;;;;;;32.93;21.89;100044.41;5069938;28;20083;-65
2022/08/27 06:44:14;;;;;;;26.35;9.65;;;;;;;33.40;20.85;100044.16;5051807;28;20475;-65
2022/08/27 06:46:42;;;;;;;21.52;9.55;;;;;;;33.80;20.35;100038.34;5051859;28;20176;-64
2022/08/27 06:49:10;;;;;;;17.03;10.00;;;;;;;33.95;20.50;100040.13;5051956;28;20048;-65
2022/08/27 06:51:38;;;;;;;19.77;10.30;;;;;;;33.25;21.03;100040.22;5052307;28;20049;-64
2022/08/27 06:54:08;;;;;;;28.63;10.73;;;;;;;32.72;21.92;100036.59;5051779;28;20053;-64
2022/08/27 06:56:35;;;;;;;28.60;13.18;;;;;;;32.23;23.08;100029.78;5051563;28;20505;-64
2022/08/27 06:59:06;;;;;;;34.00;14.05;;;;;;;31.69;24.03;100041.59;5051801;28;20441;-64
2022/08/27 07:01:40;;;;;;;28.80;14.27;;;;;;;31.43;24.41;100039.22;5051512;28;20083;-64
2022/08/27 07:04:11;;;;;;;32.35;14.52;;;;;;;31.31;24.74;100026.47;5052603;28;20083;-64
2022/08/27 07:06:39;;;;;;;29.70;15.63;;;;;;;31.58;24.98;100031.69;5052213;28;20083;-64
2022/08/27 07:09:08;;;;;;;39.38;17.02;;;;;;;32.01;24.44;100031.84;5052066;28;20492;-64
2022/08/27 07:11:35;;;;;;;30.10;14.10;;;;;;;32.12;24.05;100034.34;5051981;28;20045;-64
2022/08/27 07:14:02;;;;;;;34.95;14.05;;;;;;;32.17;23.23;100036.63;5051776;28;20053;-64
2022/08/27 07:16:29;;;;;;;28.48;12.43;;;;;;;32.00;22.40;100035.97;5050884;28;20084;-66
2022/08/27 07:19:00;;;;;;;29.73;12.88;;;;;;;32.06;21.82;100034.13;5064193;28;20059;-65
2022/08/27 07:21:31;;;;;;;26.77;14.18;;;;;;;32.79;20.96;100030.53;5075515;28;20512;-65
2022/08/27 07:24:03;;;;;;;36.25;16.00;;;;;;;33.28;20.57;100034.28;5075265;28;20062;-65
2022/08/27 07:26:33;;;;;;;32.65;14.07;;;;;;;33.53;20.10;100036.19;5074835;28;20052;-64
2022/08/27 07:29:01;;;;;;;25.05;15.43;;;;;;;33.31;20.05;100036.22;5074956;28;20061;-73
2022/08/27 07:31:29;;;;;;;24.83;13.10;;;;;;;33.03;20.02;100037.41;5074824;28;20519;-73
2022/08/27 07:33:56;;;;;;;24.90;13.63;;;;;;;33.65;19.22;100026.59;5074959;28;20506;-74
2022/08/27 07:36:23;;;;;;;23.77;15.13;;;;;;;33.72;19.58;100034.97;5074774;28;20048;-74
2022/08/27 07:38:54;;;;;;;38.95;16.95;;;;;;;34.07;18.77;100023.94;5074663;28;20388;-73
2022/08/27 07:41:31;;;;;;;29.50;14.35;;;;;;;35.13;18.40;100032.94;5074779;28;20060;-72
2022/08/27 07:46:45;;;;;;;21.48;12.27;;;;;;;36.84;15.53;100032.25;5074808;28;20052;-73
2022/08/27 07:49:16;;;;;;;37.17;12.85;;;;;;;37.83;14.82;100036.81;5074341;28;20056;-73
2022/08/27 07:51:43;;;;;;;;;;;;;;;37.88;15.00;100036.06;5075131;28;20040;-73
2022/08/27 07:54:10;;;;;;;23.85;12.80;;;;;;;38.59;14.23;100033.28;5074376;28;19939;-73
2022/08/27 07:56:37;;;;;;;28.67;13.05;;;;;;;38.84;13.65;100041.25;5074722;28;20049;-74
2022/08/27 07:59:04;;;;;;;18.50;11.38;;;;;;;39.10;13.58;100032.50;5074451;28;20087;-73
2022/08/27 08:01:31;;;;;;;24.73;12.23;;;;;;;40.23;12.65;100043.06;5074363;28;20041;-73
2022/08/27 08:03:58;;;;;;;31.02;12.07;;;;;;;39.86;12.73;100038.13;5074341;28;20095;-74
2022/08/27 08:06:26;;;;;;;23.65;11.68;;;;;;;39.08;13.11;100035.13;5074709;28;20063;-72
2022/08/27 08:08:57;;;;;;;33.20;11.20;;;;;;;40.43;12.21;100031.22;5073904;28;20504;-72
2022/08/27 08:11:25;;;;;;;36.80;12.82;;;;;;;42.97;10.38;100035.28;5074099;28;20044;-72
2022/08/27 08:13:51;;;;;;;32.72;12.27;;;;;;;44.71;9.62;100031.56;5059031;28;20063;-73
2022/08/27 08:16:19;;;;;;;24.58;11.70;;;;;;;46.11;8.46;100033.13;5054603;28;20052;-64
2022/08/27 08:18:46;;;;;;;31.83;14.82;;;;;;;47.08;8.01;100034.94;5058133;28;20135;-63
2022/08/27 08:21:13;;;;;;;28.90;10.77;;;;;;;48.62;7.35;100027.69;5073755;28;20052;-64
2022/08/27 08:23:41;;;;;;;26.25;11.95;;;;;;;49.40;6.73;100026.69;5074079;28;20143;-66
2022/08/27 08:26:11;;;;;;;20.52;12.20;;;;;;;50.31;6.41;100020.69;5074061;28;20518;-70
2022/08/27 08:28:39;;;;;;;17.35;11.43;;;;;;;51.48;5.95;100021.25;5073596;28;20418;-73
2022/08/27 08:31:06;;;;;;;19.80;10.80;;;;;;;52.44;5.27;100034.94;5073973;28;20071;-73
2022/08/27 08:33:34;;;;;;;27.95;11.05;;;;;;;53.09;4.50;100011.47;5074080;28;20048;-75
2022/08/27 08:36:14;;;;;;;22.17;10.48;;;;;;;53.82;4.61;100018.97;5073901;28;20055;-68
2022/08/27 08:38:42;;;;;;;23.45;10.02;;;;;;;53.81;3.81;100018.19;5073467;28;20106;-68
2022/08/27 08:41:35;;;;;;;20.73;10.07;;;;;;;53.65;4.00;100025.84;5073452;28;20056;-68
2022/08/27 08:44:25;;;;;;;14.88;9.20;;;;;;;53.06;4.13;100015.69;5073850;28;20048;-68
2022/08/27 08:47:06;;;;;;;20.73;10.10;;;;;;;53.69;4.29;100010.50;5073543;28;20083;-69
2022/08/27 08:49:42;;;;;;;17.90;11.63;;;;;;;54.11;3.55;100007.91;5073593;28;20048;-69
2022/08/27 08:52:18;;;;;;;17.50;10.43;;;;;;;54.83;3.33;100004.63;5073768;28;20048;-69
2022/08/27 08:55:07;;;;;;;17.40;9.20;;;;;;;55.38;2.75;100006.47;5073216;28;20051;-65
2022/08/27 08:57:47;;;;;;;18.05;9.63;;;;;;;55.67;3.53;100006.34;5073244;28;20159;-66
2022/08/27 09:00:15;;;;;;;13.32;8.68;;;;;;;55.87;2.55;100004.81;5073741;28;20048;-65
2022/08/27 09:02:49;;;;;;;16.23;8.95;;;;;;;55.51;3.07;100009.72;5063279;28;20037;-65
2022/08/27 09:05:16;;;;;;;12.15;8.38;;;;;;;55.54;2.70;99996.50;5053373;28;20048;-66
2022/08/27 09:07:56;;;;;;;20.85;8.75;;;;;;;56.24;2.73;100002.97;5055234;28;20405;-66
2022/08/27 09:10:51;;;;;;;20.50;8.77;;;;;;;55.95;2.74;99999.41;5073138;28;20113;-65
2022/08/27 09:13:26;;;;;;;17.27;9.23;;;;;;;55.85;2.72;99992.72;5072649;28;20047;-65
2022/08/27 09:15:57;;;;;;;19.15;8.98;;;;;;;55.72;2.65;99988.06;5072981;28;20045;-65
2022/08/27 09:18:24;;;;;;;15.77;8.63;;;;;;;55.36;3.09;99992.19;5072926;28;20101;-65
2022/08/27 09:21:08;;;;;;;17.42;8.38;;;;;;;55.23;3.09;99989.75;5073294;28;20044;-64
2022/08/27 09:23:58;;;;;;;12.57;8.23;;;;;;;55.00;3.29;99989.50;5073233;28;20076;-65
2022/08/27 09:26:35;;;;;;;14.93;9.15;;;;;;;54.20;3.58;99985.50;5072509;28;20511;-64
2022/08/27 09:29:15;;;;;;;16.30;9.63;;;;;;;53.63;3.41;99995.13;5072665;28;20052;-64
2022/08/27 09:31:51;;;;;;;14.27;9.13;;;;;;;53.56;3.45;99978.16;5071845;28;20064;-65
2022/08/27 09:34:18;;;;;;;;;;;;;;;53.51;3.65;99994.13;5073599;28;20052;-64
2022/08/27 09:36:53;;;;;;;14.45;7.47;;;;;;;53.67;3.35;99995.44;5072795;28;20345;-64
2022/08/27 09:39:30;;;;;;;13.50;6.97;;;;;;;52.92;3.83;99987.72;5073034;28;20050;-65
2022/08/27 09:41:58;;;;;;;12.13;7.45;;;;;;;49.22;5.17;99977.56;5071977;28;20074;-64
2022/08/27 09:44:25;;;;;;;19.75;9.30;;;;;;;46.01;6.98;99981.94;5071223;28;20530;-64
2022/08/27 09:46:56;;;;;;;17.05;9.93;;;;;;;43.79;8.31;99988.19;5072470;28;20053;-65
2022/08/27 09:49:25;;;;;;;17.30;9.70;;;;;;;42.09;9.13;99983.09;5071107;28;20079;-64
2022/08/27 09:51:55;;;;;;;17.88;9.95;;;;;;;40.87;10.52;99987.53;5072447;28;20044;-65
2022/08/27 09:54:30;;;;;;;13.32;8.15;;;;;;;39.50;11.24;99980.69;5072523;28;20062;-65
2022/08/27 09:57:00;;;;;;;22.20;10.93;;;;;;;38.57;11.86;99971.94;5072441;28;20056;-65
2022/08/27 09:59:34;;;;;;;16.08;10.02;;;;;;;37.81;12.54;99976.31;5072499;28;20504;-65
2022/08/27 10:02:16;;;;;;;26.42;11.40;;;;;;;37.30;13.18;99978.19;5072339;28;20067;-65
2022/08/27 10:04:46;;;;;;;27.58;12.40;;;;;;;36.77;13.32;99975.47;5072111;28;20052;-66
2022/08/27 10:07:30;;;;;;;27.85;12.27;;;;;;;36.26;14.33;99975.00;5072443;28;20040;-65
2022/08/27 10:10:02;;;;;;;21.80;12.57;;;;;;;36.00;14.72;99971.84;5072758;28;20139;-64
2022/08/27 10:12:40;;;;;;;23.77;11.95;;;;;;;35.84;14.99;99962.78;5072161;28;20508;-67
2022/08/27 10:15:08;;;;;;;;;;;;;;;35.54;14.38;99970.53;5072931;28;20057;-64
2022/08/27 10:18:07;;;;;;;23.70;14.65;;;;;;;35.36;15.48;99970.66;5072526;28;20035;-63
2022/08/27 10:20:47;;;;;;;27.98;14.38;;;;;;;35.11;15.69;99957.41;5071814;28;20098;-65
2022/08/27 10:23:26;;;;;;;30.20;13.65;;;;;;;35.08;15.91;99961.28;5072165;28;20139;-65
2022/08/27 10:26:14;;;;;;;22.40;13.02;;;;;;;34.97;16.29;99971.81;5072176;28;20051;-74
2022/08/27 10:28:43;;;;;;;24.00;13.43;;;;;;;34.80;15.97;99959.78;5071889;28;20082;-74
2022/08/27 10:31:26;;;;;;;23.13;13.40;;;;;;;34.69;16.58;99962.38;5072125;28;20048;-72
2022/08/27 10:34:10;;;;;;;22.67;12.77;;;;;;;34.54;16.31;99949.91;5072507;28;20060;-73
2022/08/27 10:37:04;;;;;;;21.02;11.77;;;;;;;34.58;16.47;99962.09;5072298;28;20385;-74
2022/08/27 10:39:45;;;;;;;16.20;10.25;;;;;;;34.66;16.29;99959.69;5072213;28;20095;-73
2022/08/27 10:42:33;;;;;;;29.10;10.68;;;;;;;34.65;16.34;99960.97;5064778;28;20127;-73
2022/08/27 10:45:17;;;;;;;19.48;10.10;;;;;;;34.48;16.34;99953.94;5072165;28;20432;-74
2022/08/27 10:48:05;;;;;;;17.77;9.63;;;;;;;34.61;16.13;99951.66;5071699;28;20393;-74
2022/08/27 10:50:57;;;;;;;27.15;12.07;;;;;;;34.58;16.28;99941.88;5072443;28;20088;-74
2022/08/27 10:53:47;;;;;;;24.38;11.10;;;;;;;34.64;16.76;99942.03;5074300;28;20056;-73
2022/08/27 10:56:38;;;;;;;16.48;9.82;;;;;;;34.57;16.86;99948.13;5074527;28;20588;-73
2022/08/27 10:59:29;;;;;;;13.10;8.65;;;;;;;34.38;16.64;99946.59;5075595;28;20056;-73
2022/08/27 11:02:15;;;;;;;22.00;10.18;;;;;;;34.19;17.01;99945.00;5090834;28;20047;-74
2022/08/27 11:04:50;;;;;;;18.10;9.95;;;;;;;33.88;17.31;99950.13;5075517;28;20049;-74
2022/08/27 11:07:24;;;;;;;26.38;10.52;;;;;;;33.57;17.46;99935.84;5075258;28;20052;-74
2022/08/27 11:10:01;;;;;;;31.88;12.07;;;;;;;33.47;17.66;99958.09;5076092;28;20426;-74
2022/08/27 11:12:41;;;;;;;28.08;13.77;;;;;;;33.41;17.53;99948.47;5075593;28;20043;-74
2022/08/27 11:15:24;;;;;;;17.52;12.07;;;;;;;33.24;17.80;99950.00;5075431;28;20086;-75
2022/08/27 11:17:58;;;;;;;21.70;11.77;;;;;;;32.98;18.32;99948.63;5075657;28;20562;-65
2022/08/27 11:21:06;;;;;;;25.92;12.77;;;;;;;32.89;18.50;99951.50;5074919;28;20048;-65
2022/08/27 11:24:16;;;;;;;23.83;14.10;;;;;;;32.84;18.58;99949.22;5075098;28;20037;-64
2022/08/27 11:26:44;;;;;;;25.50;12.80;;;;;;;32.94;18.79;99947.19;5021747;28;20389;-64
2022/08/27 11:29:30;;;;;;;23.70;13.30;;;;;;;33.15;18.59;99938.44;5054758;28;20148;-64
2022/08/27 11:32:26;;;;;;;29.65;13.52;;;;;;;33.39;18.64;99938.72;5055045;28;20059;-66
2022/08/27 11:35:19;;;;;;;26.38;13.38;;;;;;;33.66;18.38;99935.03;5055324;28;20045;-65
2022/08/27 11:38:26;;;;;;;32.80;17.05;;;;;;;33.66;18.33;99935.84;5073229;28;20063;-65
2022/08/27 11:41:24;;;;;;;22.17;13.55;;;;;;;33.63;18.41;99927.34;5074014;28;20094;-65
2022/08/27 11:43:53;;;;;;;28.42;14.23;;;;;;;33.66;18.46;99926.38;5058905;28;20056;-65
2022/08/27 11:46:24;;;;;;;30.35;13.90;;;;;;;33.61;18.57;99915.47;5075085;28;20137;-66
2022/08/27 11:48:58;;;;;;;22.45;13.38;;;;;;;33.70;18.54;99919.16;5074357;28;20052;-63